createdAt,value
2019-02-19T00:01:16.417Z,14.23
2019-02-19T00:03:43.728Z,14.25
2019-02-19T00:06:10.757Z,14.25
2019-02-19T00:08:38.817Z,14.24
2019-02-19T00:11:06.108Z,14.22
2019-02-19T00:13:33.113Z,14.20
2019-02-19T00:16:00.114Z,14.14
2019-02-19T00:18:27.085Z,14.11
2019-02-19T00:20:54.101Z,14.07
2019-02-19T00:23:21.457Z,14.00
2019-02-19T00:25:48.824Z,13.95
2019-02-19T00:28:16.181Z,13.98
2019-02-19T00:30:43.524Z,14.01
2019-02-19T00:33:10.505Z,14.03
2019-02-19T00:35:37.490Z,14.03
2019-02-19T00:38:06.294Z,14.03
2019-02-19T00:40:33.136Z,14.03
2019-02-19T00:43:00.497Z,14.06
2019-02-19T00:45:27.536Z,14.12
2019-02-19T00:47:54.534Z,13.95
2019-02-19T00:50:22.567Z,13.82
2019-02-19T00:52:49.573Z,13.79
2019-02-19T00:55:16.574Z,13.78
2019-02-19T00:57:43.591Z,13.81
2019-02-19T01:00:10.596Z,13.81
2019-02-19T01:02:37.576Z,13.77
2019-02-19T01:05:04.553Z,13.76
2019-02-19T01:07:31.534Z,13.71
2019-02-19T01:09:58.850Z,13.71
2019-02-19T01:12:26.092Z,13.61
2019-02-19T01:14:53.089Z,13.58
2019-02-19T01:17:21.027Z,13.56
2019-02-19T01:19:48.345Z,13.48
2019-02-19T01:22:15.716Z,13.48
2019-02-19T01:24:43.069Z,13.46
2019-02-19T01:27:10.029Z,13.42
2019-02-19T01:29:37.001Z,13.41
2019-02-19T01:32:03.963Z,13.46
2019-02-19T01:34:30.892Z,13.49
2019-02-19T01:36:57.836Z,13.51
2019-02-19T01:39:24.785Z,13.49
2019-02-19T01:41:52.134Z,13.49
2019-02-19T01:44:19.436Z,13.51
2019-02-19T01:46:46.289Z,13.46
2019-02-19T01:49:13.833Z,13.45
2019-02-19T01:51:40.738Z,13.43
2019-02-19T01:54:07.721Z,13.36
2019-02-19T01:56:34.765Z,13.33
2019-02-19T01:59:01.625Z,13.30
2019-02-19T02:01:28.557Z,13.22
2019-02-19T02:03:55.832Z,13.11
2019-02-19T02:06:23.080Z,13.10
2019-02-19T02:08:49.966Z,13.05
2019-02-19T02:11:16.845Z,13.03
2019-02-19T02:13:44.101Z,13.05
2019-02-19T02:16:11.377Z,13.03
2019-02-19T02:18:38.633Z,12.97
2019-02-19T02:21:05.577Z,12.90
2019-02-19T02:23:32.473Z,12.82
2019-02-19T02:25:59.365Z,12.84
2019-02-19T02:28:26.261Z,12.83
2019-02-19T02:30:53.249Z,12.91
2019-02-19T02:33:20.136Z,12.96
2019-02-19T02:35:47.082Z,13.03
2019-02-19T02:38:13.964Z,13.05
2019-02-19T02:40:41.274Z,13.06
2019-02-19T02:43:08.223Z,13.08
2019-02-19T02:45:35.187Z,13.12
2019-02-19T02:48:02.507Z,13.14
2019-02-19T02:50:29.393Z,13.15
2019-02-19T02:52:56.354Z,13.10
2019-02-19T02:55:23.642Z,13.08
2019-02-19T02:57:50.983Z,13.05
2019-02-19T03:00:17.934Z,13.04
2019-02-19T03:02:44.807Z,13.04
2019-02-19T03:05:12.044Z,13.06
2019-02-19T03:07:38.960Z,13.12
2019-02-19T03:10:05.853Z,13.15
2019-02-19T03:12:33.173Z,13.15
2019-02-19T03:15:00.433Z,13.16
2019-02-19T03:17:27.662Z,13.14
2019-02-19T03:19:54.561Z,13.16
2019-02-19T03:22:21.833Z,13.19
2019-02-19T03:24:49.129Z,13.22
2019-02-19T03:27:16.092Z,13.24
2019-02-19T03:29:43.329Z,13.20
2019-02-19T03:32:10.761Z,13.11
2019-02-19T03:34:37.858Z,13.03
2019-02-19T03:37:04.809Z,12.98
2019-02-19T03:39:31.750Z,12.94
2019-02-19T03:41:59.071Z,12.90
2019-02-19T03:44:25.947Z,12.83
2019-02-19T03:46:53.123Z,12.76
2019-02-19T03:49:20.015Z,12.74
2019-02-19T03:51:46.975Z,12.78
2019-02-19T03:54:13.927Z,12.86
2019-02-19T03:56:40.861Z,12.95
2019-02-19T03:59:08.215Z,12.99
2019-02-19T04:01:35.176Z,13.01
2019-02-19T04:04:02.493Z,13.00
2019-02-19T04:06:29.399Z,13.00
2019-02-19T04:08:56.331Z,12.95
2019-02-19T04:11:23.356Z,12.89
2019-02-19T04:13:50.326Z,12.85
2019-02-19T04:16:21.368Z,12.85
2019-02-19T04:18:45.797Z,12.83
2019-02-19T04:21:12.774Z,12.80
2019-02-19T04:23:40.660Z,12.83
2019-02-19T04:26:07.626Z,12.88
2019-02-19T04:28:34.937Z,12.95
2019-02-19T04:31:01.926Z,12.99
2019-02-19T04:33:28.999Z,13.04
2019-02-19T04:35:56.273Z,13.10
2019-02-19T04:38:23.699Z,13.13
2019-02-19T04:40:51.142Z,13.14
2019-02-19T04:43:18.221Z,13.09
2019-02-19T04:45:45.197Z,13.04
2019-02-19T04:48:12.430Z,12.99
2019-02-19T04:50:39.350Z,12.96
2019-02-19T04:53:06.287Z,12.90
2019-02-19T04:55:33.599Z,12.86
2019-02-19T04:58:00.584Z,12.84
2019-02-19T05:00:27.494Z,12.77
2019-02-19T05:02:54.391Z,12.68
2019-02-19T05:05:21.561Z,12.57
2019-02-19T05:07:48.592Z,12.46
2019-02-19T05:10:15.887Z,12.38
2019-02-19T05:12:47.099Z,12.35
2019-02-19T05:15:15.682Z,12.31
2019-02-19T05:17:42.776Z,12.29
2019-02-19T05:20:10.503Z,12.32
2019-02-19T05:22:37.775Z,12.29
2019-02-19T05:25:05.081Z,12.24
2019-02-19T05:27:32.423Z,12.22
2019-02-19T05:29:59.761Z,12.23
2019-02-19T05:32:26.650Z,12.24
2019-02-19T05:34:53.841Z,12.21
2019-02-19T05:37:21.066Z,12.12
2019-02-19T05:39:47.967Z,12.05
2019-02-19T05:42:15.273Z,12.02
2019-02-19T05:44:42.186Z,11.96
2019-02-19T05:47:09.090Z,11.92
2019-02-19T05:49:36.085Z,11.90
2019-02-19T05:52:03.043Z,11.88
2019-02-19T05:54:29.987Z,11.88
2019-02-19T05:56:56.991Z,11.83
2019-02-19T05:59:23.954Z,11.84
2019-02-19T06:01:50.954Z,11.81
2019-02-19T06:04:17.905Z,11.78
2019-02-19T06:06:45.213Z,11.76
2019-02-19T06:09:12.159Z,11.79
2019-02-19T06:11:39.023Z,11.81
2019-02-19T06:14:06.077Z,11.78
2019-02-19T06:16:33.346Z,11.74
2019-02-19T06:19:00.557Z,11.82
2019-02-19T06:21:27.442Z,11.94
2019-02-19T06:23:54.504Z,11.98
2019-02-19T06:26:21.554Z,11.96
2019-02-19T06:28:48.459Z,11.98
2019-02-19T06:31:15.739Z,12.00
2019-02-19T06:33:42.699Z,12.04
2019-02-19T06:36:09.640Z,12.06
2019-02-19T06:38:36.597Z,12.10
2019-02-19T06:41:03.458Z,12.10
2019-02-19T06:43:31.306Z,12.13
2019-02-19T06:45:58.533Z,12.19
2019-02-19T06:48:25.795Z,12.25
2019-02-19T06:50:53.024Z,12.33
2019-02-19T06:53:20.289Z,12.39
2019-02-19T06:55:47.548Z,12.44
2019-02-19T06:58:14.796Z,12.51
2019-02-19T07:00:41.695Z,12.70
2019-02-19T07:03:08.654Z,12.91
2019-02-19T07:05:35.957Z,13.11
2019-02-19T07:08:03.200Z,13.23
2019-02-19T07:10:30.220Z,13.36
2019-02-19T07:12:57.217Z,13.49
2019-02-19T07:15:24.173Z,13.63
2019-02-19T07:17:51.469Z,13.73
2019-02-19T07:20:18.643Z,13.86
2019-02-19T07:22:45.583Z,13.96
2019-02-19T07:25:12.836Z,14.03
2019-02-19T07:27:39.812Z,14.03
2019-02-19T07:30:06.754Z,14.00
2019-02-19T07:32:33.692Z,14.02
2019-02-19T07:35:00.615Z,14.14
2019-02-19T07:37:27.591Z,14.25
2019-02-19T07:39:54.833Z,14.30
2019-02-19T07:42:21.756Z,14.32
2019-02-19T07:44:48.709Z,14.39
2019-02-19T07:47:24.266Z,14.41
2019-02-19T07:49:44.433Z,14.46
2019-02-19T07:52:11.593Z,14.54
2019-02-19T07:54:38.832Z,14.57
2019-02-19T07:57:05.985Z,14.61
2019-02-19T07:59:33.555Z,14.73
2019-02-19T08:02:00.794Z,14.84
2019-02-19T08:04:27.723Z,14.91
2019-02-19T08:06:54.623Z,15.02
2019-02-19T08:09:21.572Z,15.22
2019-02-19T08:11:48.815Z,15.38
2019-02-19T08:14:15.736Z,15.55
2019-02-19T08:16:42.992Z,15.73
2019-02-19T08:19:09.912Z,15.93
2019-02-19T08:21:36.876Z,16.16
2019-02-19T08:24:03.818Z,16.34
2019-02-19T08:26:30.687Z,16.47
2019-02-19T08:29:11.301Z,16.59
2019-02-19T08:31:26.187Z,16.68
2019-02-19T08:33:53.171Z,16.77
2019-02-19T08:36:20.106Z,16.89
2019-02-19T08:38:47.350Z,16.97
2019-02-19T08:41:14.277Z,17.09
2019-02-19T08:43:41.556Z,17.16
2019-02-19T08:46:08.784Z,17.20
2019-02-19T08:48:35.770Z,17.30
2019-02-19T08:51:03.004Z,17.40
2019-02-19T08:53:30.180Z,17.49
2019-02-19T08:55:57.142Z,17.56
2019-02-19T08:58:24.457Z,17.60
2019-02-19T09:00:51.420Z,17.63
2019-02-19T09:03:18.751Z,17.70
2019-02-19T09:05:45.914Z,17.80
2019-02-19T09:08:12.831Z,17.90
2019-02-19T09:10:39.800Z,17.99
2019-02-19T09:13:06.740Z,18.04
2019-02-19T09:15:33.683Z,18.07
2019-02-19T09:18:00.831Z,18.13
2019-02-19T09:20:28.187Z,18.20
2019-02-19T09:22:55.148Z,18.24
2019-02-19T09:25:22.137Z,18.24
2019-02-19T09:27:49.484Z,18.29
2019-02-19T09:30:16.397Z,18.32
2019-02-19T09:32:43.308Z,18.34
2019-02-19T09:35:10.593Z,18.36
2019-02-19T09:37:37.469Z,18.41
2019-02-19T09:40:04.692Z,18.45
2019-02-19T09:42:31.565Z,18.51
2019-02-19T09:44:59.546Z,18.54
2019-02-19T09:47:26.854Z,18.55
2019-02-19T09:49:53.829Z,18.57
2019-02-19T09:52:20.766Z,18.62
2019-02-19T09:54:47.982Z,18.69
2019-02-19T09:57:15.434Z,18.73
2019-02-19T09:59:42.605Z,18.72
2019-02-19T10:02:09.559Z,18.77
2019-02-19T10:04:36.909Z,18.81
2019-02-19T10:07:04.165Z,18.84
2019-02-19T10:09:31.033Z,18.90
2019-02-19T10:11:57.966Z,18.92
2019-02-19T10:14:24.872Z,18.99
2019-02-19T10:16:51.762Z,19.14
2019-02-19T10:19:18.694Z,19.26
2019-02-19T10:21:45.805Z,19.27
2019-02-19T10:24:12.712Z,19.34
2019-02-19T10:26:40.761Z,19.44
2019-02-19T10:29:07.749Z,19.53
2019-02-19T10:31:34.618Z,19.60
2019-02-19T10:34:01.874Z,19.67
2019-02-19T10:36:28.763Z,19.76
2019-02-19T10:38:56.068Z,19.86
2019-02-19T10:41:22.956Z,19.93
2019-02-19T10:43:49.929Z,19.98
2019-02-19T10:46:16.871Z,19.99
2019-02-19T10:48:43.794Z,20.01
2019-02-19T10:51:10.753Z,20.05
2019-02-19T10:53:37.714Z,20.08
2019-02-19T10:56:04.745Z,20.10
2019-02-19T10:58:32.093Z,20.12
2019-02-19T11:00:59.030Z,20.16
2019-02-19T11:03:25.950Z,20.21
2019-02-19T11:05:52.844Z,20.24
2019-02-19T11:08:20.150Z,20.24
2019-02-19T11:10:47.038Z,20.24
2019-02-19T11:13:14.265Z,20.26
2019-02-19T11:15:41.504Z,20.24
2019-02-19T11:18:08.438Z,20.26
2019-02-19T11:20:35.310Z,20.26
2019-02-19T11:23:02.193Z,20.28
2019-02-19T11:25:29.092Z,20.20
2019-02-19T11:27:56.045Z,20.18
2019-02-19T11:30:23.309Z,20.18
2019-02-19T11:32:50.249Z,20.19
2019-02-19T11:35:17.120Z,20.20
2019-02-19T11:37:44.234Z,20.17
2019-02-19T11:40:11.141Z,20.17
2019-02-19T11:42:38.119Z,20.15
2019-02-19T11:45:05.372Z,20.18
2019-02-19T11:47:32.255Z,20.21
2019-02-19T11:49:59.598Z,20.21
2019-02-19T11:52:26.917Z,20.20
2019-02-19T11:54:53.895Z,20.21
2019-02-19T11:57:21.214Z,20.22
2019-02-19T11:59:48.460Z,20.22
2019-02-19T12:02:15.339Z,20.25
2019-02-19T12:04:42.668Z,20.27
2019-02-19T12:07:09.625Z,20.27
2019-02-19T12:09:36.586Z,20.21
2019-02-19T12:12:03.466Z,20.11
2019-02-19T12:14:30.416Z,20.09
2019-02-19T12:16:57.398Z,20.12
2019-02-19T12:19:24.326Z,20.18
2019-02-19T12:21:51.497Z,20.14
2019-02-19T12:24:18.394Z,20.13
2019-02-19T12:26:45.595Z,20.15
2019-02-19T12:29:12.544Z,20.08
2019-02-19T12:31:39.554Z,19.98
2019-02-19T12:34:06.559Z,19.98
2019-02-19T12:36:33.881Z,19.99
2019-02-19T12:39:01.182Z,20.00
2019-02-19T12:41:30.311Z,20.02
2019-02-19T12:43:59.271Z,19.98
2019-02-19T12:46:26.173Z,20.01
2019-02-19T12:48:54.858Z,19.98
2019-02-19T12:51:26.362Z,19.99
2019-02-19T12:53:50.555Z,19.91
2019-02-19T12:56:17.736Z,19.70
2019-02-19T12:58:44.700Z,19.52
2019-02-19T13:01:11.688Z,19.39
2019-02-19T13:03:38.629Z,19.16
2019-02-19T13:06:05.822Z,19.05
2019-02-19T13:08:33.319Z,18.93
2019-02-19T13:11:00.301Z,18.78
2019-02-19T13:13:27.610Z,18.69
2019-02-19T13:15:54.566Z,18.62
2019-02-19T13:18:21.518Z,18.55
2019-02-19T13:20:48.396Z,18.60
2019-02-19T13:23:16.459Z,18.63
2019-02-19T13:25:43.439Z,18.57
2019-02-19T13:28:10.695Z,18.53
2019-02-19T13:30:37.939Z,18.44
2019-02-19T13:33:04.887Z,18.46
2019-02-19T13:35:31.805Z,18.46
2019-02-19T13:37:58.771Z,18.47
2019-02-19T13:40:26.027Z,18.49
2019-02-19T13:42:52.906Z,18.50
2019-02-19T13:45:19.836Z,18.51
2019-02-19T13:47:47.109Z,18.45
2019-02-19T13:50:14.336Z,18.45
2019-02-19T13:52:41.232Z,18.48
2019-02-19T13:55:08.124Z,18.47
2019-02-19T13:57:35.377Z,18.50
2019-02-19T14:00:02.347Z,18.52
2019-02-19T14:02:30.003Z,18.51
2019-02-19T14:04:57.349Z,18.43
2019-02-19T14:07:24.296Z,18.36
2019-02-19T14:09:51.260Z,18.31
2019-02-19T14:12:18.195Z,18.34
2019-02-19T14:14:45.414Z,18.24
2019-02-19T14:17:12.314Z,18.18
2019-02-19T14:19:39.289Z,18.05
2019-02-19T14:22:06.580Z,17.99
2019-02-19T14:24:33.934Z,17.97
2019-02-19T14:27:01.205Z,17.98
2019-02-19T14:29:28.173Z,18.00
2019-02-19T14:31:55.393Z,17.95
2019-02-19T14:34:22.638Z,17.99
2019-02-19T14:36:49.881Z,18.04
2019-02-19T14:39:16.769Z,18.07
2019-02-19T14:41:43.992Z,18.05
2019-02-19T14:44:10.940Z,18.04
2019-02-19T14:46:38.170Z,18.05
2019-02-19T14:49:05.041Z,18.04
2019-02-19T14:51:32.014Z,18.04
2019-02-19T14:53:59.209Z,18.06
2019-02-19T14:56:26.242Z,18.05
2019-02-19T14:58:53.224Z,18.04
2019-02-19T15:01:20.109Z,18.03
2019-02-19T15:03:47.066Z,18.03
2019-02-19T15:06:14.368Z,18.03
2019-02-19T15:08:42.374Z,18.03
2019-02-19T15:11:10.177Z,17.97
2019-02-19T15:13:37.145Z,17.86
2019-02-19T15:16:04.104Z,17.81
2019-02-19T15:18:30.973Z,17.79
2019-02-19T15:20:57.881Z,17.77
2019-02-19T15:23:32.913Z,17.78
2019-02-19T15:25:59.912Z,17.75
2019-02-19T15:28:27.212Z,17.76
2019-02-19T15:30:54.189Z,17.76
2019-02-19T15:33:21.430Z,17.78
2019-02-19T15:35:48.308Z,17.81
2019-02-19T15:38:15.229Z,17.82
2019-02-19T15:40:42.454Z,17.80
2019-02-19T15:43:09.399Z,17.87
2019-02-19T15:45:36.349Z,18.04
2019-02-19T15:48:03.248Z,18.12
2019-02-19T15:50:30.545Z,18.20
2019-02-19T15:52:57.549Z,18.24
2019-02-19T15:55:24.544Z,18.23
2019-02-19T15:57:51.481Z,18.13
2019-02-19T16:00:18.630Z,18.06
2019-02-19T16:02:45.911Z,17.99
2019-02-19T16:05:12.875Z,17.93
2019-02-19T16:07:40.186Z,17.86
2019-02-19T16:10:07.438Z,17.79
2019-02-19T16:12:34.726Z,17.74
2019-02-19T16:15:02.275Z,17.70
2019-02-19T16:17:29.401Z,17.69
2019-02-19T16:19:57.281Z,17.63
2019-02-19T16:22:24.404Z,17.58
2019-02-19T16:24:51.292Z,17.57
2019-02-19T16:27:18.513Z,17.57
2019-02-19T16:29:45.403Z,17.54
2019-02-19T16:32:12.342Z,17.53
2019-02-19T16:34:39.241Z,17.48
2019-02-19T16:37:06.513Z,17.43
2019-02-19T16:39:33.490Z,17.39
2019-02-19T16:42:00.465Z,17.38
2019-02-19T16:44:27.762Z,17.38
2019-02-19T16:46:54.807Z,17.39
2019-02-19T16:49:22.076Z,17.35
2019-02-19T16:51:49.415Z,17.33
2019-02-19T16:54:16.410Z,17.30
2019-02-19T16:56:43.381Z,17.27
2019-02-19T16:59:10.651Z,17.26
2019-02-19T17:01:37.612Z,17.21
2019-02-19T17:04:04.935Z,17.19
2019-02-19T17:06:31.960Z,17.16
2019-02-19T17:09:00.453Z,17.15
2019-02-19T17:11:29.230Z,17.14
2019-02-19T17:13:58.679Z,17.12
2019-02-19T17:16:25.801Z,17.14
2019-02-19T17:18:52.758Z,17.08
2019-02-19T17:21:20.028Z,17.07
2019-02-19T17:23:46.982Z,17.08
2019-02-19T17:26:14.842Z,17.06
2019-02-19T17:28:43.167Z,17.01
2019-02-19T17:31:10.147Z,17.00
2019-02-19T17:33:37.421Z,17.00
2019-02-19T17:36:04.361Z,17.00
2019-02-19T17:38:31.614Z,17.00
2019-02-19T17:40:58.498Z,16.96
2019-02-19T17:43:25.821Z,16.92
2019-02-19T17:45:52.722Z,16.89
2019-02-19T17:48:20.022Z,16.88
2019-02-19T17:50:46.908Z,16.88
2019-02-19T17:53:14.905Z,16.87
2019-02-19T17:55:42.393Z,16.86
2019-02-19T17:58:09.745Z,16.82
2019-02-19T18:00:36.885Z,16.82
2019-02-19T18:03:03.774Z,16.83
2019-02-19T18:05:31.898Z,16.84
2019-02-19T18:07:58.796Z,16.80
2019-02-19T18:10:26.116Z,16.79
2019-02-19T18:12:53.481Z,16.75
2019-02-19T18:15:20.429Z,16.76
2019-02-19T18:17:47.654Z,16.74
2019-02-19T18:20:14.618Z,16.73
2019-02-19T18:22:41.573Z,16.71
2019-02-19T18:25:08.805Z,16.71
2019-02-19T18:27:35.765Z,16.71
2019-02-19T18:30:03.005Z,16.70
2019-02-19T18:32:31.792Z,16.70
2019-02-19T18:34:58.765Z,16.67
2019-02-19T18:37:25.997Z,16.67
2019-02-19T18:39:53.339Z,16.66
2019-02-19T18:42:20.205Z,16.68
2019-02-19T18:44:47.090Z,16.72
2019-02-19T18:47:14.332Z,16.72
2019-02-19T18:49:42.909Z,16.68
2019-02-19T18:52:09.819Z,16.65
2019-02-19T18:54:36.781Z,16.64
2019-02-19T18:57:03.694Z,16.65
2019-02-19T18:59:30.628Z,16.59
2019-02-19T19:01:57.601Z,16.58
2019-02-19T19:04:24.573Z,16.57
2019-02-19T19:06:51.560Z,16.59
2019-02-19T19:09:18.496Z,16.61
2019-02-19T19:11:45.787Z,16.62
2019-02-19T19:14:12.689Z,16.64
2019-02-19T19:16:39.805Z,16.64
2019-02-19T19:19:08.051Z,16.64
2019-02-19T19:21:35.319Z,16.65
2019-02-19T19:24:02.273Z,16.66
2019-02-19T19:26:29.271Z,16.66
2019-02-19T19:28:56.569Z,16.66
2019-02-19T19:31:32.945Z,16.70
2019-02-19T19:33:52.738Z,16.70
2019-02-19T19:36:20.046Z,16.69
2019-02-19T19:38:48.327Z,16.66
2019-02-19T19:41:15.731Z,16.66
2019-02-19T19:43:44.077Z,16.68
2019-02-19T19:46:11.127Z,16.66
2019-02-19T19:48:38.480Z,16.60
2019-02-19T19:51:05.531Z,16.60
2019-02-19T19:53:32.489Z,16.65
2019-02-19T19:55:59.463Z,16.71
2019-02-19T19:58:26.371Z,16.70
2019-02-19T20:00:53.331Z,16.70
2019-02-19T20:03:20.294Z,16.70
2019-02-19T20:05:47.312Z,16.69
2019-02-19T20:08:14.562Z,16.67
2019-02-19T20:10:41.486Z,16.65
2019-02-19T20:13:08.791Z,16.64
2019-02-19T20:15:36.189Z,16.69
2019-02-19T20:18:03.360Z,16.73
2019-02-19T20:20:30.485Z,16.76
2019-02-19T20:22:57.718Z,16.74
2019-02-19T20:25:24.929Z,16.68
2019-02-19T20:27:53.318Z,16.65
2019-02-19T20:30:20.360Z,16.67
2019-02-19T20:32:47.355Z,16.66
2019-02-19T20:35:14.871Z,16.67
2019-02-19T20:37:41.867Z,16.71
2019-02-19T20:40:10.064Z,16.75
2019-02-19T20:42:37.726Z,16.70
2019-02-19T20:45:04.993Z,16.71
2019-02-19T20:47:33.600Z,16.76
2019-02-19T20:50:00.941Z,16.71
2019-02-19T20:52:28.788Z,16.72
2019-02-19T20:54:55.780Z,16.75
2019-02-19T20:57:23.398Z,16.78
2019-02-19T20:59:50.683Z,16.78
2019-02-19T21:02:18.032Z,16.79
2019-02-19T21:04:45.149Z,16.81
2019-02-19T21:07:12.135Z,16.84
2019-02-19T21:09:43.969Z,16.86
2019-02-19T21:12:08.006Z,16.83
2019-02-19T21:14:35.647Z,16.82
2019-02-19T21:17:02.967Z,16.82
2019-02-19T21:19:30.158Z,16.85
2019-02-19T21:21:57.359Z,16.88
2019-02-19T21:24:24.709Z,16.90
2019-02-19T21:26:52.176Z,16.87
2019-02-19T21:29:19.643Z,16.88
2019-02-19T21:31:46.600Z,16.89
2019-02-19T21:34:13.857Z,16.88
2019-02-19T21:36:41.209Z,16.89
2019-02-19T21:39:08.168Z,16.89
2019-02-19T21:41:37.048Z,16.88
2019-02-19T21:44:04.381Z,16.89
2019-02-19T21:46:31.517Z,16.84
2019-02-19T21:48:58.397Z,16.81
2019-02-19T21:51:25.261Z,16.79
2019-02-19T21:53:52.157Z,16.77
2019-02-19T21:56:19.412Z,16.78
2019-02-19T21:58:46.356Z,16.79
2019-02-19T22:01:13.610Z,16.82
2019-02-19T22:03:40.880Z,16.84
2019-02-19T22:06:08.321Z,16.82
2019-02-19T22:08:35.198Z,16.79
2019-02-19T22:11:02.082Z,16.80
2019-02-19T22:13:29.380Z,16.81
2019-02-19T22:15:57.395Z,16.83
2019-02-19T22:18:24.582Z,16.82
2019-02-19T22:20:51.854Z,16.80
2019-02-19T22:23:18.828Z,16.78
2019-02-19T22:25:45.785Z,16.78
2019-02-19T22:28:12.774Z,16.79
2019-02-19T22:30:39.716Z,16.80
2019-02-19T22:33:06.601Z,16.81
2019-02-19T22:35:33.495Z,16.80
2019-02-19T22:38:00.777Z,16.81
2019-02-19T22:40:27.735Z,16.81
2019-02-19T22:42:54.675Z,16.82
2019-02-19T22:45:21.613Z,16.83
2019-02-19T22:47:53.424Z,16.83
2019-02-19T22:50:17.448Z,16.83
2019-02-19T22:52:44.618Z,16.82
2019-02-19T22:55:11.490Z,16.79
2019-02-19T22:57:38.676Z,16.77
2019-02-19T23:00:05.935Z,16.75
2019-02-19T23:02:34.744Z,16.74
2019-02-19T23:05:01.773Z,16.73
2019-02-19T23:07:29.003Z,16.68
2019-02-19T23:09:56.171Z,16.68
2019-02-19T23:12:23.343Z,16.63
2019-02-19T23:14:50.590Z,16.62
2019-02-19T23:17:17.852Z,16.60
2019-02-19T23:19:44.824Z,16.60
2019-02-19T23:22:12.140Z,16.60
2019-02-19T23:24:39.296Z,16.52
2019-02-19T23:27:06.532Z,16.49
2019-02-19T23:29:33.444Z,16.50
2019-02-19T23:32:00.740Z,16.53
2019-02-19T23:34:27.711Z,16.54
2019-02-19T23:36:54.926Z,16.53
2019-02-19T23:39:21.837Z,16.52
2019-02-19T23:41:48.722Z,16.54
2019-02-19T23:44:15.637Z,16.54
2019-02-19T23:46:43.981Z,16.55
2019-02-19T23:49:11.049Z,16.59
2019-02-19T23:51:38.262Z,16.55
2019-02-19T23:54:05.526Z,16.55
2019-02-19T23:56:32.754Z,16.52
2019-02-19T23:58:59.673Z,16.51
